Time;durP1;ratioP1;P1;durP2;ratioP2;P2;SDS_P1;SDS_P2;PMS_P1;PMS_P2;Temp;Humidity;BMP_temperature;BMP_pressure;BME280_temperature;BME280_humidity;BME280_pressure;Samples;Min_cycle;Max_cycle;Signal;HPM_P1;HPM_P2
2023/04/18 00:00:28;;;;;;;35.23;23.77;;;;;;;;;;5070549;28;20260;-82
2023/04/18 00:02:54;;;;;;;36.30;23.60;;;;;;;;;;5070098;28;20268;-81
2023/04/18 00:05:20;;;;;;;35.23;24.37;;;;;;;;;;5070590;28;20230;-81
2023/04/18 00:07:47;;;;;;;30.27;22.87;;;;;;;;;;5071403;28;20204;-81
2023/04/18 00:10:13;;;;;;;28.20;20.40;;;;;;;;;;5071309;28;20173;-80
2023/04/18 00:12:48;;;;;;;32.27;22.67;;;;;;;;;;5071016;28;20493;-84
2023/04/18 00:15:14;;;;;;;32.43;23.07;;;;;;;;;;5069269;28;20177;-82
2023/04/18 00:17:40;;;;;;;27.37;21.10;;;;;;;;;;5071540;28;20189;-84
2023/04/18 00:20:18;;;;;;;29.07;21.97;;;;;;;;;;5069914;28;20174;-82
2023/04/18 00:22:45;;;;;;;29.97;21.37;;;;;;;;;;5070234;28;20259;-82
2023/04/18 00:25:11;;;;;;;28.13;21.97;;;;;;;;;;5070720;28;20878;-82
2023/04/18 00:27:46;;;;;;;33.90;23.47;;;;;;;;;;5070613;28;20200;-83
2023/04/18 00:30:12;;;;;;;29.93;22.13;;;;;;;;;;5070282;28;20247;-82
2023/04/18 00:32:38;;;;;;;30.17;22.57;;;;;;;;;;5070222;28;20645;-82
2023/04/18 00:35:05;;;;;;;32.07;23.57;;;;;;;;;;5070276;28;20219;-80
2023/04/18 00:37:31;;;;;;;28.13;21.93;;;;;;;;;;5070622;28;20630;-84
2023/04/18 00:39:57;;;;;;;30.53;21.97;;;;;;;;;;5070305;28;20184;-84
2023/04/18 00:42:24;;;;;;;28.93;21.53;;;;;;;;;;5070621;28;20536;-84
2023/04/18 00:44:50;;;;;;;30.90;21.10;;;;;;;;;;5070095;28;20189;-81
2023/04/18 00:47:16;;;;;;;30.80;22.00;;;;;;;;;;5070255;28;20172;-83
2023/04/18 00:49:47;;;;;;;32.50;22.97;;;;;;;;;;5070546;28;20204;-84
2023/04/18 00:52:13;;;;;;;28.07;21.70;;;;;;;;;;5069579;28;20530;-83
2023/04/18 00:54:40;;;;;;;27.83;21.17;;;;;;;;;;5069868;28;20197;-81
2023/04/18 00:57:07;;;;;;;29.13;20.80;;;;;;;;;;5070285;28;20178;-82
2023/04/18 00:59:34;;;;;;;27.83;20.90;;;;;;;;;;5069150;28;20176;-81
2023/04/18 01:02:00;;;;;;;27.37;22.00;;;;;;;;;;5070709;28;20212;-82
2023/04/18 01:04:26;;;;;;;27.40;22.10;;;;;;;;;;5071637;28;20173;-84
2023/04/18 01:06:52;;;;;;;24.33;19.43;;;;;;;;;;5069102;28;20629;-83
2023/04/18 01:09:19;;;;;;;28.87;21.30;;;;;;;;;;5069813;28;20196;-81
2023/04/18 01:11:45;;;;;;;25.70;20.40;;;;;;;;;;5070395;28;20178;-80
2023/04/18 01:14:11;;;;;;;27.30;20.87;;;;;;;;;;5071045;28;20190;-81
2023/04/18 01:16:37;;;;;;;27.07;20.30;;;;;;;;;;5070753;28;20172;-82
2023/04/18 01:19:04;;;;;;;26.17;19.17;;;;;;;;;;5070168;28;20250;-80
2023/04/18 01:21:32;;;;;;;29.03;19.97;;;;;;;;;;5068629;28;20212;-82
2023/04/18 01:24:12;;;;;;;23.50;19.13;;;;;;;;;;5069924;28;20183;-82
2023/04/18 01:26:38;;;;;;;26.87;19.83;;;;;;;;;;5070146;28;20207;-82
2023/04/18 01:29:05;;;;;;;22.83;19.43;;;;;;;;;;5070601;28;20237;-83
2023/04/18 01:31:34;;;;;;;24.53;19.37;;;;;;;;;;5070172;28;20176;-83
2023/04/18 01:34:00;;;;;;;21.03;17.90;;;;;;;;;;5069240;28;20217;-85
2023/04/18 01:36:26;;;;;;;22.40;18.93;;;;;;;;;;5068409;28;20779;-82
2023/04/18 01:38:52;;;;;;;24.47;18.87;;;;;;;;;;5069208;28;20284;-84
2023/04/18 01:41:18;;;;;;;25.67;19.53;;;;;;;;;;5070344;28;20187;-83
2023/04/18 01:43:45;;;;;;;23.03;18.80;;;;;;;;;;5068315;28;20272;-82
2023/04/18 01:46:11;;;;;;;24.73;18.97;;;;;;;;;;5068105;28;20181;-80
2023/04/18 01:48:37;;;;;;;20.63;18.20;;;;;;;;;;5068573;28;20208;-82
2023/04/18 01:51:03;;;;;;;22.63;18.47;;;;;;;;;;5069083;28;20527;-86
2023/04/18 01:53:29;;;;;;;22.63;18.77;;;;;;;;;;5068719;28;20177;-81
2023/04/18 01:55:57;;;;;;;21.33;18.93;;;;;;;;;;5069518;28;20165;-81
2023/04/18 01:58:24;;;;;;;25.37;20.03;;;;;;;;;;5069163;28;20180;-85
2023/04/18 02:00:53;;;;;;;23.83;19.43;;;;;;;;;;5068335;28;20221;-81
2023/04/18 02:03:19;;;;;;;22.37;18.73;;;;;;;;;;5068188;28;20181;-85
2023/04/18 02:05:46;;;;;;;25.60;20.20;;;;;;;;;;5068487;28;20184;-81
2023/04/18 02:08:12;;;;;;;24.43;19.97;;;;;;;;;;5068746;28;20199;-85
2023/04/18 02:10:38;;;;;;;26.87;19.37;;;;;;;;;;5070172;28;20199;-85
2023/04/18 02:13:05;;;;;;;26.67;19.97;;;;;;;;;;5068669;28;20181;-84
2023/04/18 02:15:31;;;;;;;24.37;19.83;;;;;;;;;;5070117;28;20181;-81
2023/04/18 02:18:00;;;;;;;27.20;19.97;;;;;;;;;;5072073;28;20201;-82
2023/04/18 02:20:30;;;;;;;24.63;19.63;;;;;;;;;;5073445;28;20230;-84
2023/04/18 02:22:56;;;;;;;26.30;20.20;;;;;;;;;;5074277;28;20730;-81
2023/04/18 02:25:25;;;;;;;24.27;19.33;;;;;;;;;;5089703;28;20256;-85
2023/04/18 02:27:51;;;;;;;24.77;20.67;;;;;;;;;;5072716;28;20540;-84
2023/04/18 02:30:17;;;;;;;24.60;20.43;;;;;;;;;;5072322;28;20197;-85
2023/04/18 02:32:43;;;;;;;26.97;20.97;;;;;;;;;;5071496;28;20173;-85
2023/04/18 02:35:11;;;;;;;28.00;20.37;;;;;;;;;;5073514;28;20307;-85
2023/04/18 02:37:37;;;;;;;29.07;22.07;;;;;;;;;;5073020;28;20175;-82
2023/04/18 02:40:06;;;;;;;25.07;19.90;;;;;;;;;;5073177;28;20260;-84
2023/04/18 02:42:32;;;;;;;25.70;21.33;;;;;;;;;;5071580;28;20188;-83
2023/04/18 02:44:58;;;;;;;26.40;21.80;;;;;;;;;;5072324;28;20185;-83
2023/04/18 02:47:24;;;;;;;25.10;20.17;;;;;;;;;;5071276;28;20176;-81
2023/04/18 02:49:50;;;;;;;28.57;20.77;;;;;;;;;;5072557;28;20242;-84
2023/04/18 02:52:16;;;;;;;27.33;22.03;;;;;;;;;;5071879;28;20499;-84
2023/04/18 02:54:42;;;;;;;28.50;21.43;;;;;;;;;;5072553;28;20180;-82
2023/04/18 02:57:08;;;;;;;25.93;21.07;;;;;;;;;;5072147;28;20623;-84
2023/04/18 02:59:34;;;;;;;27.00;21.70;;;;;;;;;;5071690;28;20231;-82
2023/04/18 03:02:00;;;;;;;27.43;22.83;;;;;;;;;;5071827;28;20190;-82
2023/04/18 03:04:26;;;;;;;29.20;22.30;;;;;;;;;;5105578;28;20191;-81
2023/04/18 03:06:52;;;;;;;29.20;23.40;;;;;;;;;;5073245;28;20169;-82
2023/04/18 03:09:18;;;;;;;27.00;23.03;;;;;;;;;;5072635;28;20718;-85
2023/04/18 03:11:45;;;;;;;30.53;23.83;;;;;;;;;;5071629;28;20222;-80
2023/04/18 03:14:11;;;;;;;29.43;22.80;;;;;;;;;;5072482;28;20177;-82
2023/04/18 03:16:37;;;;;;;32.00;25.33;;;;;;;;;;5072592;28;20161;-80
2023/04/18 03:19:04;;;;;;;29.50;24.90;;;;;;;;;;5071107;28;20185;-81
2023/04/18 03:21:29;;;;;;;29.00;23.60;;;;;;;;;;5071291;28;20189;-85
2023/04/18 03:23:55;;;;;;;31.53;24.20;;;;;;;;;;5071506;28;20177;-84
2023/04/18 03:26:22;;;;;;;27.23;22.93;;;;;;;;;;5070294;28;20182;-83
2023/04/18 03:28:48;;;;;;;31.80;24.50;;;;;;;;;;5073436;28;20207;-85
2023/04/18 03:31:14;;;;;;;29.53;23.43;;;;;;;;;;5070862;28;20177;-80
2023/04/18 03:33:41;;;;;;;32.20;24.50;;;;;;;;;;5071810;28;20226;-85
2023/04/18 03:36:07;;;;;;;30.30;25.17;;;;;;;;;;5072049;28;20185;-85
2023/04/18 03:38:33;;;;;;;35.03;25.10;;;;;;;;;;5070865;28;20530;-82
2023/04/18 03:40:59;;;;;;;31.20;24.63;;;;;;;;;;5072040;28;20172;-81
2023/04/18 03:43:25;;;;;;;32.87;24.60;;;;;;;;;;5070699;28;20180;-84
2023/04/18 03:45:51;;;;;;;35.47;26.70;;;;;;;;;;5070514;28;20685;-82
2023/04/18 03:48:17;;;;;;;33.57;25.77;;;;;;;;;;5071782;28;20318;-81
2023/04/18 03:50:43;;;;;;;35.30;25.40;;;;;;;;;;5071060;28;20545;-82
2023/04/18 03:53:10;;;;;;;34.10;24.93;;;;;;;;;;5071844;28;20244;-81
2023/04/18 03:55:36;;;;;;;29.03;23.37;;;;;;;;;;5071501;28;20169;-82
2023/04/18 03:58:02;;;;;;;33.57;25.43;;;;;;;;;;5070508;28;20200;-84
2023/04/18 04:00:28;;;;;;;28.67;23.47;;;;;;;;;;5071470;28;20193;-84
2023/04/18 04:02:54;;;;;;;33.67;25.80;;;;;;;;;;5070913;28;20284;-84
2023/04/18 04:05:20;;;;;;;28.47;23.40;;;;;;;;;;5069803;28;20165;-84
2023/04/18 04:07:46;;;;;;;29.47;25.20;;;;;;;;;;5071854;28;20527;-81
2023/04/18 04:10:12;;;;;;;27.80;23.27;;;;;;;;;;5070650;28;20200;-81
2023/04/18 04:12:38;;;;;;;28.67;25.20;;;;;;;;;;5069174;28;20184;-81
2023/04/18 04:15:04;;;;;;;28.13;22.73;;;;;;;;;;5068878;28;20621;-81
2023/04/18 04:17:30;;;;;;;30.10;23.57;;;;;;;;;;5068739;28;20235;-81
2023/04/18 04:19:56;;;;;;;28.83;23.50;;;;;;;;;;5070199;28;20173;-82
2023/04/18 04:22:22;;;;;;;30.80;23.97;;;;;;;;;;5069058;28;20673;-81
2023/04/18 04:24:48;;;;;;;27.67;23.10;;;;;;;;;;5069342;28;20268;-81
2023/04/18 04:27:17;;;;;;;28.93;23.40;;;;;;;;;;5068825;28;20264;-82
2023/04/18 04:29:43;;;;;;;27.07;23.00;;;;;;;;;;5068716;28;20201;-82
2023/04/18 04:32:09;;;;;;;28.70;22.73;;;;;;;;;;5069084;28;20687;-81
2023/04/18 04:34:35;;;;;;;28.37;22.97;;;;;;;;;;5069748;28;20222;-81
2023/04/18 04:37:01;;;;;;;28.10;23.37;;;;;;;;;;5066169;28;20174;-81
2023/04/18 04:39:27;;;;;;;26.40;22.53;;;;;;;;;;5070519;28;20208;-81
2023/04/18 04:41:54;;;;;;;32.07;22.37;;;;;;;;;;5067810;28;20211;-81
2023/04/18 04:44:21;;;;;;;24.57;21.83;;;;;;;;;;5065398;28;20165;-81
2023/04/18 04:46:48;;;;;;;29.10;22.03;;;;;;;;;;5070035;28;20185;-82
2023/04/18 04:49:14;;;;;;;24.47;21.60;;;;;;;;;;5066989;28;20653;-81
2023/04/18 04:51:40;;;;;;;29.73;22.13;;;;;;;;;;5064768;28;20199;-82
2023/04/18 04:54:06;;;;;;;27.70;21.50;;;;;;;;;;5068073;28;20185;-82
2023/04/18 04:56:32;;;;;;;23.77;21.03;;;;;;;;;;5067405;28;20633;-82
2023/04/18 04:58:58;;;;;;;27.47;21.50;;;;;;;;;;5068402;28;20173;-81
2023/04/18 05:01:24;;;;;;;28.17;22.03;;;;;;;;;;5067185;28;20189;-81
2023/04/18 05:03:51;;;;;;;28.17;21.87;;;;;;;;;;5069123;28;20188;-81
2023/04/18 05:06:19;;;;;;;26.13;22.83;;;;;;;;;;5067660;28;20889;-80
2023/04/18 05:08:46;;;;;;;26.00;21.77;;;;;;;;;;5067769;28;20311;-80
2023/04/18 05:11:12;;;;;;;26.23;21.73;;;;;;;;;;5067923;28;20216;-80
2023/04/18 05:13:38;;;;;;;26.63;21.57;;;;;;;;;;5065830;28;20586;-81
2023/04/18 05:16:05;;;;;;;24.90;20.80;;;;;;;;;;5066666;28;20276;-81
2023/04/18 05:18:31;;;;;;;25.97;21.93;;;;;;;;;;5065808;28;20307;-81
2023/04/18 05:20:57;;;;;;;26.80;20.77;;;;;;;;;;5067294;28;20189;-80
2023/04/18 05:23:23;;;;;;;25.93;22.27;;;;;;;;;;5067649;28;20201;-81
2023/04/18 05:25:49;;;;;;;25.47;21.23;;;;;;;;;;5068383;28;20181;-81
2023/04/18 05:28:15;;;;;;;22.90;20.17;;;;;;;;;;5068244;28;20198;-82
2023/04/18 05:30:42;;;;;;;24.43;20.50;;;;;;;;;;5066942;28;20268;-81
2023/04/18 05:33:08;;;;;;;26.20;21.43;;;;;;;;;;5068832;28;20181;-81
2023/04/18 05:35:34;;;;;;;25.70;20.00;;;;;;;;;;5068210;28;20188;-81
2023/04/18 05:38:00;;;;;;;25.70;20.57;;;;;;;;;;5068417;28;20268;-81
2023/04/18 05:40:26;;;;;;;23.63;19.83;;;;;;;;;;5067870;28;20257;-81
2023/04/18 05:42:52;;;;;;;24.10;19.80;;;;;;;;;;5066315;28;20185;-81
2023/04/18 05:45:18;;;;;;;24.50;19.47;;;;;;;;;;5067507;28;20230;-82
2023/04/18 05:47:44;;;;;;;24.70;19.57;;;;;;;;;;5067158;28;20272;-82
2023/04/18 05:50:10;;;;;;;24.20;19.20;;;;;;;;;;5067151;28;20414;-81
2023/04/18 05:52:40;;;;;;;27.80;20.20;;;;;;;;;;5068057;28;20173;-81
2023/04/18 05:55:06;;;;;;;29.43;20.73;;;;;;;;;;5066779;28;20185;-81
2023/04/18 05:57:32;;;;;;;22.80;19.97;;;;;;;;;;5066105;28;20260;-81
2023/04/18 05:59:58;;;;;;;25.90;20.50;;;;;;;;;;5068415;28;20181;-81
2023/04/18 06:02:24;;;;;;;24.50;19.73;;;;;;;;;;5067368;28;20610;-81
2023/04/18 06:04:50;;;;;;;26.57;20.50;;;;;;;;;;5067699;28;20177;-82
2023/04/18 06:07:16;;;;;;;25.57;20.73;;;;;;;;;;5066442;28;20169;-80
2023/04/18 06:09:43;;;;;;;26.50;19.83;;;;;;;;;;5066976;28;20721;-81
2023/04/18 06:12:08;;;;;;;24.87;20.03;;;;;;;;;;5066898;28;20196;-81
2023/04/18 06:14:34;;;;;;;23.83;19.97;;;;;;;;;;5066881;28;20625;-80
2023/04/18 06:17:00;;;;;;;26.23;20.73;;;;;;;;;;5068298;28;20177;-81
2023/04/18 06:19:26;;;;;;;29.50;20.53;;;;;;;;;;5067488;28;20215;-81
2023/04/18 06:21:53;;;;;;;22.83;19.23;;;;;;;;;;5068347;28;20240;-81
2023/04/18 06:24:19;;;;;;;28.50;20.93;;;;;;;;;;5067835;28;20177;-81
2023/04/18 06:26:45;;;;;;;23.87;19.80;;;;;;;;;;5066981;28;20549;-81
2023/04/18 06:29:11;;;;;;;29.07;21.67;;;;;;;;;;5068395;28;20207;-81
2023/04/18 06:31:37;;;;;;;22.07;19.53;;;;;;;;;;5066981;28;20173;-81
2023/04/18 06:34:03;;;;;;;26.30;19.60;;;;;;;;;;5068352;28;20169;-81
2023/04/18 06:36:30;;;;;;;23.43;20.00;;;;;;;;;;5068277;28;20222;-81
2023/04/18 06:38:56;;;;;;;27.93;20.57;;;;;;;;;;5066824;28;20196;-81
2023/04/18 06:41:22;;;;;;;24.53;19.67;;;;;;;;;;5067096;28;20177;-79
2023/04/18 06:43:48;;;;;;;28.00;20.17;;;;;;;;;;5067454;28;20610;-81
2023/04/18 06:46:14;;;;;;;27.60;20.73;;;;;;;;;;5068131;28;20169;-81
2023/04/18 06:48:40;;;;;;;28.37;21.70;;;;;;;;;;5066511;28;20208;-81
2023/04/18 06:51:06;;;;;;;24.97;20.30;;;;;;;;;;5068635;28;20189;-81
2023/04/18 06:53:32;;;;;;;27.97;20.23;;;;;;;;;;5068080;28;20166;-81
2023/04/18 06:55:58;;;;;;;24.70;19.47;;;;;;;;;;5067532;28;20223;-81
2023/04/18 06:58:25;;;;;;;25.10;20.03;;;;;;;;;;5066264;28;20587;-81
2023/04/18 07:00:51;;;;;;;21.73;19.00;;;;;;;;;;5069566;28;20181;-81
2023/04/18 07:03:17;;;;;;;23.73;20.30;;;;;;;;;;5070194;28;20513;-81
2023/04/18 07:05:43;;;;;;;28.87;20.27;;;;;;;;;;5069499;28;20221;-81
2023/04/18 07:08:09;;;;;;;25.13;18.63;;;;;;;;;;5071032;28;20693;-81
2023/04/18 07:10:35;;;;;;;25.93;19.63;;;;;;;;;;5069668;28;20264;-81
2023/04/18 07:13:02;;;;;;;24.50;19.90;;;;;;;;;;5069952;28;20203;-81
2023/04/18 07:15:28;;;;;;;24.00;19.53;;;;;;;;;;5069925;28;20173;-81
2023/04/18 07:17:54;;;;;;;26.17;19.17;;;;;;;;;;5071327;28;20173;-81
2023/04/18 07:20:20;;;;;;;23.97;19.47;;;;;;;;;;5071805;28;20552;-81
2023/04/18 07:22:46;;;;;;;24.20;19.53;;;;;;;;;;5069306;28;20266;-81
2023/04/18 07:25:12;;;;;;;24.70;20.67;;;;;;;;;;5070702;28;20252;-80
2023/04/18 07:27:38;;;;;;;24.83;19.87;;;;;;;;;;5069721;28;20625;-81
2023/04/18 07:30:05;;;;;;;26.20;20.63;;;;;;;;;;5069549;28;20212;-81
2023/04/18 07:32:31;;;;;;;24.60;19.37;;;;;;;;;;5070011;28;21425;-81
2023/04/18 07:34:57;;;;;;;27.43;19.80;;;;;;;;;;5070676;28;20177;-81
2023/04/18 07:37:23;;;;;;;23.67;19.53;;;;;;;;;;5069070;28;20185;-81
2023/04/18 07:39:50;;;;;;;28.23;19.70;;;;;;;;;;5069869;28;20267;-81
2023/04/18 07:42:16;;;;;;;21.47;19.10;;;;;;;;;;5069455;28;20208;-81
2023/04/18 07:44:43;;;;;;;25.43;20.03;;;;;;;;;;5069324;28;20169;-81
2023/04/18 07:47:09;;;;;;;28.57;20.70;;;;;;;;;;5072060;28;20165;-81
2023/04/18 07:49:35;;;;;;;22.77;19.13;;;;;;;;;;5069109;28;20266;-81
2023/04/18 07:52:01;;;;;;;27.27;19.90;;;;;;;;;;5068802;28;20624;-81
2023/04/18 07:54:27;;;;;;;25.47;20.23;;;;;;;;;;5070096;28;20220;-81
2023/04/18 07:56:54;;;;;;;22.53;19.80;;;;;;;;;;5070509;28;20227;-81
2023/04/18 07:59:20;;;;;;;28.03;21.70;;;;;;;;;;5070509;28;20258;-81
2023/04/18 08:01:46;;;;;;;23.00;19.50;;;;;;;;;;5070421;28;20208;-81
2023/04/18 08:04:13;;;;;;;27.83;20.07;;;;;;;;;;5069068;28;20189;-81
2023/04/18 08:06:39;;;;;;;20.93;17.87;;;;;;;;;;5068726;28;20633;-81
2023/04/18 08:09:05;;;;;;;27.77;18.83;;;;;;;;;;5069937;28;20262;-81
2023/04/18 08:11:34;;;;;;;24.43;18.50;;;;;;;;;;5068951;28;20173;-80
2023/04/18 08:14:01;;;;;;;28.17;19.03;;;;;;;;;;5087107;28;20181;-81
2023/04/18 08:16:28;;;;;;;28.93;19.53;;;;;;;;;;5068831;28;20200;-81
2023/04/18 08:18:54;;;;;;;26.13;18.50;;;;;;;;;;5068441;28;20214;-83
2023/04/18 08:21:20;;;;;;;24.43;19.80;;;;;;;;;;5068340;28;20676;-80
2023/04/18 08:23:46;;;;;;;25.70;19.17;;;;;;;;;;5068610;28;20196;-80
2023/04/18 08:26:12;;;;;;;23.87;19.67;;;;;;;;;;5071496;28;20181;-80
2023/04/18 08:28:38;;;;;;;22.83;18.07;;;;;;;;;;5068842;28;20197;-80
2023/04/18 08:31:05;;;;;;;25.00;19.57;;;;;;;;;;5068264;28;20273;-81
2023/04/18 08:33:31;;;;;;;22.37;18.27;;;;;;;;;;5069952;28;20212;-80
2023/04/18 08:35:57;;;;;;;21.17;18.87;;;;;;;;;;5067705;28;20188;-81
2023/04/18 08:38:23;;;;;;;24.13;18.37;;;;;;;;;;5070001;28;20165;-80
2023/04/18 08:40:49;;;;;;;23.50;18.27;;;;;;;;;;5069731;28;20197;-80
2023/04/18 08:43:15;;;;;;;22.23;18.23;;;;;;;;;;5068495;28;20183;-81
2023/04/18 08:45:41;;;;;;;26.87;20.33;;;;;;;;;;5068835;28;20682;-80
2023/04/18 08:48:11;;;;;;;24.03;18.97;;;;;;;;;;5068767;28;20201;-81
2023/04/18 08:50:37;;;;;;;22.17;19.03;;;;;;;;;;5068727;28;20507;-80
2023/04/18 08:53:04;;;;;;;26.53;18.97;;;;;;;;;;5069412;28;20161;-80
2023/04/18 08:55:32;;;;;;;23.95;20.85;;;;;;;;;;5067705;28;20404;-79
2023/04/18 08:57:58;;;;;;;22.93;19.17;;;;;;;;;;5067326;28;20283;-81
2023/04/18 09:00:26;;;;;;;24.20;19.17;;;;;;;;;;5068213;28;20185;-81
2023/04/18 09:02:57;;;;;;;21.50;18.73;;;;;;;;;;5067088;28;20189;-82
2023/04/18 09:05:25;;;;;;;22.10;17.80;;;;;;;;;;5069791;28;20222;-81
2023/04/18 09:07:52;;;;;;;20.67;16.73;;;;;;;;;;5068916;28;20625;-81
2023/04/18 09:10:27;;;;;;;20.80;16.93;;;;;;;;;;5067495;28;20189;-81
2023/04/18 09:12:53;;;;;;;21.03;17.43;;;;;;;;;;5067124;28;20504;-81
2023/04/18 09:15:22;;;;;;;24.87;19.00;;;;;;;;;;5068504;28;20180;-80
2023/04/18 09:17:49;;;;;;;21.27;16.93;;;;;;;;;;5069107;28;20184;-81
2023/04/18 09:20:29;;;;;;;20.67;16.57;;;;;;;;;;5069776;28;20565;-80
2023/04/18 09:22:56;;;;;;;21.37;16.90;;;;;;;;;;5068012;28;20208;-81
2023/04/18 09:25:26;;;;;;;17.73;15.83;;;;;;;;;;5068293;28;20181;-81
2023/04/18 09:27:52;;;;;;;19.57;15.67;;;;;;;;;;5067480;28;20188;-81
2023/04/18 09:30:38;;;;;;;19.77;14.57;;;;;;;;;;5067996;28;20668;-81
2023/04/18 09:33:09;;;;;;;17.87;15.73;;;;;;;;;;5068517;28;20173;-81
2023/04/18 09:35:38;;;;;;;21.23;15.73;;;;;;;;;;5067990;28;20223;-80
2023/04/18 09:38:04;;;;;;;19.17;16.20;;;;;;;;;;5067813;28;20571;-81
2023/04/18 09:40:31;;;;;;;22.87;15.37;;;;;;;;;;5067125;28;20187;-81
2023/04/18 09:42:57;;;;;;;17.93;15.40;;;;;;;;;;5066793;28;20189;-81
2023/04/18 09:45:23;;;;;;;19.30;15.50;;;;;;;;;;5066547;28;20535;-81
2023/04/18 09:47:49;;;;;;;17.37;13.47;;;;;;;;;;5066071;28;20610;-81
2023/04/18 09:50:17;;;;;;;15.83;12.20;;;;;;;;;;5068878;28;20173;-81
2023/04/18 09:52:43;;;;;;;16.57;11.53;;;;;;;;;;5067267;28;20292;-81
2023/04/18 09:55:11;;;;;;;14.27;11.27;;;;;;;;;;5067956;28;20206;-81
2023/04/18 09:57:39;;;;;;;18.77;11.83;;;;;;;;;;5067429;28;20177;-81
2023/04/18 10:00:08;;;;;;;17.07;13.70;;;;;;;;;;5067384;28;20192;-81
2023/04/18 10:02:42;;;;;;;15.67;12.30;;;;;;;;;;5100765;28;20230;-81
2023/04/18 10:05:08;;;;;;;16.13;13.87;;;;;;;;;;5068738;28;20169;-81
2023/04/18 10:07:35;;;;;;;16.47;13.27;;;;;;;;;;5067224;28;20189;-81
2023/04/18 10:10:01;;;;;;;16.17;13.00;;;;;;;;;;5067591;28;20208;-81
2023/04/18 10:12:27;;;;;;;14.70;11.50;;;;;;;;;;5067966;28;20200;-81
2023/04/18 10:14:53;;;;;;;17.00;12.53;;;;;;;;;;5067284;28;20165;-81
2023/04/18 10:17:20;;;;;;;14.80;10.73;;;;;;;;;;5068943;28;20169;-81
2023/04/18 10:19:46;;;;;;;14.33;9.87;;;;;;;;;;5067113;28;20222;-82
2023/04/18 10:22:12;;;;;;;10.70;9.17;;;;;;;;;;5067129;28;20220;-81
2023/04/18 10:24:52;;;;;;;15.17;10.20;;;;;;;;;;5069051;28;20189;-84
2023/04/18 10:27:18;;;;;;;13.30;10.40;;;;;;;;;;5069006;28;20624;-83
2023/04/18 10:29:50;;;;;;;12.03;10.40;;;;;;;;;;5068851;28;20218;-82
2023/04/18 10:32:17;;;;;;;17.97;11.20;;;;;;;;;;5069928;28;20169;-84
2023/04/18 10:34:43;;;;;;;13.93;10.43;;;;;;;;;;5069311;28;20173;-82
2023/04/18 10:37:11;;;;;;;15.20;9.73;;;;;;;;;;5071212;28;20184;-84
2023/04/18 10:39:57;;;;;;;13.73;9.37;;;;;;;;;;5071836;28;20801;-81
2023/04/18 10:42:43;;;;;;;16.10;11.90;;;;;;;;;;5071771;28;20185;-78
2023/04/18 10:45:21;;;;;;;13.67;11.30;;;;;;;;;;5072796;28;20169;-82
2023/04/18 10:47:48;;;;;;;14.47;10.77;;;;;;;;;;5072510;28;20169;-81
2023/04/18 10:50:14;;;;;;;20.70;12.40;;;;;;;;;;5072439;28;20280;-79
2023/04/18 10:52:41;;;;;;;16.07;11.73;;;;;;;;;;5070977;28;20233;-79
2023/04/18 10:55:12;;;;;;;15.67;12.80;;;;;;;;;;5072834;28;20601;-82
2023/04/18 10:57:38;;;;;;;14.80;11.77;;;;;;;;;;5071958;28;20223;-83
2023/04/18 11:00:05;;;;;;;16.90;11.73;;;;;;;;;;5072966;28;20185;-81
2023/04/18 11:02:32;;;;;;;16.60;12.17;;;;;;;;;;5073113;28;20210;-83
2023/04/18 11:04:59;;;;;;;14.23;11.77;;;;;;;;;;5071584;28;20318;-82
2023/04/18 11:07:51;;;;;;;14.53;11.70;;;;;;;;;;5071164;28;20230;-82
2023/04/18 11:10:18;;;;;;;16.17;12.23;;;;;;;;;;5069109;28;20199;-83
2023/04/18 11:12:44;;;;;;;15.87;12.03;;;;;;;;;;5071840;28;20181;-85
2023/04/18 11:15:12;;;;;;;15.87;12.17;;;;;;;;;;5070141;28;20802;-82
2023/04/18 11:17:38;;;;;;;24.33;13.03;;;;;;;;;;5089349;28;20165;-82
2023/04/18 11:20:08;;;;;;;18.93;12.00;;;;;;;;;;5072170;28;20200;-81
2023/04/18 11:22:49;;;;;;;16.00;12.00;;;;;;;;;;5069853;28;20266;-83
2023/04/18 11:25:15;;;;;;;18.53;12.63;;;;;;;;;;5069906;28;20201;-83
2023/04/18 11:27:43;;;;;;;20.07;12.73;;;;;;;;;;5070997;28;20266;-82
2023/04/18 11:30:10;;;;;;;16.30;13.13;;;;;;;;;;5071029;28;20197;-81
2023/04/18 11:32:36;;;;;;;14.40;12.30;;;;;;;;;;5072381;28;20173;-83
2023/04/18 11:35:02;;;;;;;13.80;12.27;;;;;;;;;;5070613;28;20188;-79
2023/04/18 11:37:28;;;;;;;23.10;13.47;;;;;;;;;;5071356;28;20537;-83
2023/04/18 11:39:55;;;;;;;15.60;12.57;;;;;;;;;;5070337;28;20192;-84
2023/04/18 11:42:26;;;;;;;17.07;12.93;;;;;;;;;;5071696;28;20180;-81
2023/04/18 11:44:52;;;;;;;26.17;12.20;;;;;;;;;;5069247;28;20169;-82
2023/04/18 11:47:25;;;;;;;16.90;11.90;;;;;;;;;;5070414;28;20187;-79
2023/04/18 11:49:59;;;;;;;15.97;11.97;;;;;;;;;;5070472;28;20739;-84
2023/04/18 11:52:29;;;;;;;18.83;12.53;;;;;;;;;;5070380;28;20181;-82
2023/04/18 11:54:55;;;;;;;16.80;13.27;;;;;;;;;;5068265;28;20254;-82
2023/04/18 11:57:26;;;;;;;19.20;12.50;;;;;;;;;;5068144;28;20595;-86
2023/04/18 11:59:56;;;;;;;15.33;12.63;;;;;;;;;;5067717;28;20838;-80
2023/04/18 12:02:23;;;;;;;16.03;12.37;;;;;;;;;;5069758;28;20230;-80
2023/04/18 12:04:59;;;;;;;17.27;12.73;;;;;;;;;;5067387;28;20181;-79
2023/04/18 12:07:36;;;;;;;24.83;12.93;;;;;;;;;;5068898;28;20201;-83
2023/04/18 12:10:02;;;;;;;13.90;12.00;;;;;;;;;;5069116;28;20208;-85
2023/04/18 12:12:29;;;;;;;16.57;12.13;;;;;;;;;;5070540;28;20196;-85
2023/04/18 12:15:08;;;;;;;16.77;11.83;;;;;;;;;;5067668;28;20188;-87
2023/04/18 12:17:36;;;;;;;17.00;13.80;;;;;;;;;;5070135;28;20200;-84
2023/04/18 12:20:04;;;;;;;17.80;12.60;;;;;;;;;;5070441;28;20208;-81
2023/04/18 12:22:37;;;;;;;15.77;11.87;;;;;;;;;;5068822;28;20213;-82
2023/04/18 12:25:20;;;;;;;13.50;11.73;;;;;;;;;;5067919;28;20586;-82
2023/04/18 12:27:47;;;;;;;16.57;11.57;;;;;;;;;;5067020;28;20173;-85
2023/04/18 12:30:14;;;;;;;13.67;11.87;;;;;;;;;;5069184;28;20677;-81
2023/04/18 12:32:40;;;;;;;15.33;12.53;;;;;;;;;;5069502;28;20166;-84
2023/04/18 12:35:07;;;;;;;16.97;12.90;;;;;;;;;;5068114;28;20184;-82
2023/04/18 12:37:33;;;;;;;16.03;11.17;;;;;;;;;;5067829;28;20200;-84
2023/04/18 12:39:59;;;;;;;15.47;11.43;;;;;;;;;;5067314;28;20192;-81
2023/04/18 12:42:24;;;;;;;14.23;11.20;;;;;;;;;;5068847;28;20181;-85
2023/04/18 12:44:50;;;;;;;15.40;11.57;;;;;;;;;;5070297;28;20200;-81
2023/04/18 12:47:17;;;;;;;13.77;11.20;;;;;;;;;;5070824;28;20703;-80
2023/04/18 12:49:43;;;;;;;18.73;11.27;;;;;;;;;;5068929;28;20266;-84
2023/04/18 12:52:09;;;;;;;12.47;10.70;;;;;;;;;;5070642;28;20197;-85
2023/04/18 12:54:35;;;;;;;13.50;10.33;;;;;;;;;;5070972;28;20211;-84
2023/04/18 12:57:02;;;;;;;11.17;9.97;;;;;;;;;;5068742;28;20169;-86
2023/04/18 12:59:29;;;;;;;18.70;10.60;;;;;;;;;;5077126;28;20638;-85
2023/04/18 13:01:55;;;;;;;15.77;11.60;;;;;;;;;;5066815;28;20188;-83
2023/04/18 13:04:21;;;;;;;14.03;10.17;;;;;;;;;;5067671;28;20184;-84
2023/04/18 13:06:47;;;;;;;11.47;10.23;;;;;;;;;;5066688;28;20230;-84
2023/04/18 13:09:13;;;;;;;13.87;10.23;;;;;;;;;;5068397;28;20212;-78
2023/04/18 13:11:39;;;;;;;14.60;10.87;;;;;;;;;;5068094;28;20563;-79
2023/04/18 13:14:05;;;;;;;13.03;10.27;;;;;;;;;;5068622;28;20177;-80
2023/04/18 13:16:31;;;;;;;15.83;9.63;;;;;;;;;;5067906;28;20264;-80
2023/04/18 13:18:57;;;;;;;11.40;10.20;;;;;;;;;;5064775;28;20775;-82
2023/04/18 13:21:24;;;;;;;11.60;10.43;;;;;;;;;;5027182;28;1097190;-81
2023/04/18 13:23:50;;;;;;;12.17;9.97;;;;;;;;;;5069700;28;20177;-80
2023/04/18 13:26:16;;;;;;;12.00;9.60;;;;;;;;;;5068347;28;20187;-81
2023/04/18 13:28:42;;;;;;;11.37;10.17;;;;;;;;;;5067479;28;20201;-82
2023/04/18 13:31:08;;;;;;;11.63;9.87;;;;;;;;;;5069410;28;20656;-85
2023/04/18 13:33:34;;;;;;;14.93;9.07;;;;;;;;;;5070490;28;20242;-80
2023/04/18 13:36:01;;;;;;;9.83;8.80;;;;;;;;;;5067672;28;20173;-85
2023/04/18 13:38:27;;;;;;;11.93;9.47;;;;;;;;;;5068604;28;20173;-83
2023/04/18 13:40:53;;;;;;;12.87;9.33;;;;;;;;;;5066216;28;20181;-84
2023/04/18 13:43:19;;;;;;;13.97;9.87;;;;;;;;;;5068031;28;20177;-86
2023/04/18 13:45:45;;;;;;;14.03;9.73;;;;;;;;;;5068130;28;20633;-82
2023/04/18 13:48:11;;;;;;;10.83;9.63;;;;;;;;;;5067626;28;20169;-86
2023/04/18 13:50:38;;;;;;;12.80;9.80;;;;;;;;;;5069157;28;20171;-86
2023/04/18 13:53:04;;;;;;;12.33;9.27;;;;;;;;;;5067181;28;20173;-82
2023/04/18 13:55:30;;;;;;;11.30;8.63;;;;;;;;;;5066248;28;20183;-81
2023/04/18 13:57:56;;;;;;;12.93;9.27;;;;;;;;;;5065812;28;20625;-84
2023/04/18 14:00:22;;;;;;;9.90;8.20;;;;;;;;;;5062838;28;20181;-84
2023/04/18 14:02:48;;;;;;;15.57;8.83;;;;;;;;;;5073871;28;20169;-85
2023/04/18 14:05:14;;;;;;;11.27;8.33;;;;;;;;;;5067572;28;20267;-84
2023/04/18 14:07:40;;;;;;;10.53;8.47;;;;;;;;;;5065469;28;20509;-85
2023/04/18 14:10:07;;;;;;;11.27;7.53;;;;;;;;;;5068352;28;20609;-85
2023/04/18 14:12:48;;;;;;;10.17;7.67;;;;;;;;;;5071398;28;20192;-84
2023/04/18 14:18:20;;;;;;;9.17;7.37;;;;;;;;;;5070834;28;20222;-86
2023/04/18 14:20:47;;;;;;;8.17;7.30;;;;;;;;;;5070301;28;20192;-85